sensor_id;sensor_type;location;lat;lon;timestamp;pressure;altitude;pressure_sealevel;temperature;humidity
9523;BME280;63165;43.016;25.784;2023-04-30T00:02:15;99804.47;;;10.99;79.60
9523;BME280;63165;43.016;25.784;2023-04-30T00:04:42;99812.44;;;10.95;79.43
9523;BME280;63165;43.016;25.784;2023-04-30T00:07:10;99824.56;;;10.99;79.43
9523;BME280;63165;43.016;25.784;2023-04-30T00:09:37;99810.06;;;10.82;79.30
9523;BME280;63165;43.016;25.784;2023-04-30T00:12:06;99817.75;;;10.90;79.11
9523;BME280;63165;43.016;25.784;2023-04-30T00:14:33;99824.78;;;10.88;79.40
9523;BME280;63165;43.016;25.784;2023-04-30T00:17:01;99822.31;;;10.82;79.41
9523;BME280;63165;43.016;25.784;2023-04-30T00:19:28;99804.38;;;10.63;79.24
9523;BME280;63165;43.016;25.784;2023-04-30T00:21:55;99800.13;;;10.58;79.61
9523;BME280;63165;43.016;25.784;2023-04-30T00:24:23;99802.84;;;10.53;79.44
9523;BME280;63165;43.016;25.784;2023-04-30T00:26:50;99815.84;;;10.56;79.53
9523;BME280;63165;43.016;25.784;2023-04-30T00:29:19;99825.34;;;10.60;79.35
9523;BME280;63165;43.016;25.784;2023-04-30T00:31:46;99787.50;;;10.36;79.14
9523;BME280;63165;43.016;25.784;2023-04-30T00:34:13;99792.56;;;10.44;79.20
9523;BME280;63165;43.016;25.784;2023-04-30T00:36:41;99823.03;;;10.46;79.22
9523;BME280;63165;43.016;25.784;2023-04-30T00:39:08;99826.66;;;10.39;79.67
9523;BME280;63165;43.016;25.784;2023-04-30T00:41:35;99801.56;;;10.27;79.43
9523;BME280;63165;43.016;25.784;2023-04-30T00:44:03;99810.31;;;10.26;79.63
9523;BME280;63165;43.016;25.784;2023-04-30T00:46:32;99791.31;;;10.17;79.60
9523;BME280;63165;43.016;25.784;2023-04-30T00:48:59;99813.88;;;10.22;78.92
9523;BME280;63165;43.016;25.784;2023-04-30T00:51:30;99792.44;;;10.05;79.07
9523;BME280;63165;43.016;25.784;2023-04-30T00:54:00;99790.69;;;10.04;79.34
9523;BME280;63165;43.016;25.784;2023-04-30T00:56:28;99787.31;;;9.99;79.37
9523;BME280;63165;43.016;25.784;2023-04-30T00:58:55;99790.88;;;9.93;78.79
9523;BME280;63165;43.016;25.784;2023-04-30T01:01:23;99794.53;;;9.84;79.16
9523;BME280;63165;43.016;25.784;2023-04-30T01:03:53;99797.97;;;9.88;79.30
9523;BME280;63165;43.016;25.784;2023-04-30T01:06:20;99777.41;;;9.68;79.21
9523;BME280;63165;43.016;25.784;2023-04-30T01:08:48;99798.09;;;9.80;78.99
9523;BME280;63165;43.016;25.784;2023-04-30T01:11:27;99791.41;;;9.64;79.26
9523;BME280;63165;43.016;25.784;2023-04-30T01:14:03;99788.81;;;9.62;79.18
9523;BME280;63165;43.016;25.784;2023-04-30T01:16:39;99777.59;;;9.56;78.46
9523;BME280;63165;43.016;25.784;2023-04-30T01:19:16;99802.13;;;9.48;78.63
9523;BME280;63165;43.016;25.784;2023-04-30T01:21:46;99797.06;;;9.36;78.50
9523;BME280;63165;43.016;25.784;2023-04-30T01:24:30;99764.38;;;9.12;78.45
9523;BME280;63165;43.016;25.784;2023-04-30T01:27:06;99787.03;;;9.11;78.61
9523;BME280;63165;43.016;25.784;2023-04-30T01:29:42;99787.03;;;9.11;78.68
9523;BME280;63165;43.016;25.784;2023-04-30T01:32:10;99798.28;;;9.15;78.45
9523;BME280;63165;43.016;25.784;2023-04-30T01:34:37;99807.06;;;9.09;78.50
9523;BME280;63165;43.016;25.784;2023-04-30T01:37:13;99786.47;;;8.89;78.67
9523;BME280;63165;43.016;25.784;2023-04-30T01:39:55;99739.16;;;8.52;78.79
9523;BME280;63165;43.016;25.784;2023-04-30T01:42:31;99790.88;;;8.83;79.30
9523;BME280;63165;43.016;25.784;2023-04-30T01:45:14;99758.22;;;8.57;79.55
9523;BME280;63165;43.016;25.784;2023-04-30T01:47:51;99755.63;;;8.55;78.99
9523;BME280;63165;43.016;25.784;2023-04-30T01:50:24;99768.78;;;8.46;79.14
9523;BME280;63165;43.016;25.784;2023-04-30T01:52:57;99783.44;;;8.55;79.21
9523;BME280;63165;43.016;25.784;2023-04-30T01:55:34;99773.91;;;8.51;79.16
9523;BME280;63165;43.016;25.784;2023-04-30T01:58:05;99799.13;;;8.50;78.74
9523;BME280;63165;43.016;25.784;2023-04-30T02:00:35;99763.81;;;8.23;79.10
9523;BME280;63165;43.016;25.784;2023-04-30T02:03:05;99802.72;;;8.39;79.07
9523;BME280;63165;43.016;25.784;2023-04-30T02:05:36;99793.25;;;8.31;79.23
9523;BME280;63165;43.016;25.784;2023-04-30T02:08:07;99691.50;;;7.65;79.31
9523;BME280;63165;43.016;25.784;2023-04-30T02:10:36;99783.00;;;8.16;79.79
9523;BME280;63165;43.016;25.784;2023-04-30T02:13:07;99755.41;;;7.96;79.49
9523;BME280;63165;43.016;25.784;2023-04-30T02:15:36;99718.44;;;7.62;79.68
9523;BME280;63165;43.016;25.784;2023-04-30T02:18:10;99713.31;;;7.53;79.66
9523;BME280;63165;43.016;25.784;2023-04-30T02:20:43;99786.66;;;7.96;79.92
9523;BME280;63165;43.016;25.784;2023-04-30T02:23:15;99785.81;;;7.97;80.44
9523;BME280;63165;43.016;25.784;2023-04-30T02:25:46;99779.75;;;7.94;80.13
9523;BME280;63165;43.016;25.784;2023-04-30T02:28:15;99775.53;;;7.84;79.77
9523;BME280;63165;43.016;25.784;2023-04-30T02:30:47;99726.41;;;7.45;80.05
9523;BME280;63165;43.016;25.784;2023-04-30T02:33:22;99785.97;;;7.79;80.61
9523;BME280;63165;43.016;25.784;2023-04-30T02:36:11;99805.03;;;7.84;80.81
9523;BME280;63165;43.016;25.784;2023-04-30T02:38:42;99787.66;;;7.85;80.42
9523;BME280;63165;43.016;25.784;2023-04-30T02:41:12;99762.78;;;7.53;80.29
9523;BME280;63165;43.016;25.784;2023-04-30T02:43:49;99812.94;;;7.75;80.29
9523;BME280;63165;43.016;25.784;2023-04-30T02:46:19;99764.44;;;7.63;80.12
9523;BME280;63165;43.016;25.784;2023-04-30T02:48:50;99786.91;;;7.70;80.07
9523;BME280;63165;43.016;25.784;2023-04-30T02:51:26;99788.75;;;7.64;80.19
9523;BME280;63165;43.016;25.784;2023-04-30T02:54:05;99788.75;;;7.59;80.29
9523;BME280;63165;43.016;25.784;2023-04-30T02:56:33;99793.97;;;7.61;79.90
9523;BME280;63165;43.016;25.784;2023-04-30T02:59:14;99778.41;;;7.51;80.28
9523;BME280;63165;43.016;25.784;2023-04-30T03:01:55;99805.22;;;7.61;80.10
9523;BME280;63165;43.016;25.784;2023-04-30T03:04:34;99812.19;;;7.59;79.93
9523;BME280;63165;43.016;25.784;2023-04-30T03:07:08;99820.06;;;7.54;80.00
9523;BME280;63165;43.016;25.784;2023-04-30T03:09:46;99791.50;;;7.41;80.47
9523;BME280;63165;43.016;25.784;2023-04-30T03:12:22;99814.91;;;7.48;79.99
9523;BME280;63165;43.016;25.784;2023-04-30T03:14:57;99809.78;;;7.34;80.03
9523;BME280;63165;43.016;25.784;2023-04-30T03:17:29;99787.28;;;7.30;80.49
9523;BME280;63165;43.016;25.784;2023-04-30T03:20:16;99818.44;;;7.38;80.71
9523;BME280;63165;43.016;25.784;2023-04-30T03:22:47;99813.28;;;7.32;80.54
9523;BME280;63165;43.016;25.784;2023-04-30T03:25:21;99804.63;;;7.28;80.64
9523;BME280;63165;43.016;25.784;2023-04-30T03:27:50;99815.09;;;7.17;80.67
9523;BME280;63165;43.016;25.784;2023-04-30T03:30:32;99813.41;;;7.16;80.75
9523;BME280;63165;43.016;25.784;2023-04-30T03:33:08;99816.00;;;7.12;80.85
9523;BME280;63165;43.016;25.784;2023-04-30T03:35:44;99832.53;;;7.06;81.11
9523;BME280;63165;43.016;25.784;2023-04-30T03:38:15;99815.22;;;6.97;81.21
9523;BME280;63165;43.016;25.784;2023-04-30T03:40:49;99838.63;;;7.02;81.69
9523;BME280;63165;43.016;25.784;2023-04-30T03:43:28;99836.88;;;7.03;82.00
9523;BME280;63165;43.016;25.784;2023-04-30T03:46:02;99823.03;;;6.97;81.84
9523;BME280;63165;43.016;25.784;2023-04-30T03:48:35;99836.03;;;7.05;82.05
9523;BME280;63165;43.016;25.784;2023-04-30T03:51:04;99835.13;;;7.08;82.15
9523;BME280;63165;43.016;25.784;2023-04-30T03:53:32;99839.44;;;7.09;82.02
9523;BME280;63165;43.016;25.784;2023-04-30T03:56:09;99830.88;;;6.93;82.25
9523;BME280;63165;43.016;25.784;2023-04-30T03:58:40;99844.72;;;6.95;82.57
9523;BME280;63165;43.016;25.784;2023-04-30T04:01:14;99859.44;;;7.02;83.35
9523;BME280;63165;43.016;25.784;2023-04-30T04:03:47;99839.47;;;7.07;83.72
9523;BME280;63165;43.016;25.784;2023-04-30T04:06:19;99837.69;;;7.12;84.29
9523;BME280;63165;43.016;25.784;2023-04-30T04:08:56;99854.97;;;7.23;84.56
9523;BME280;63165;43.016;25.784;2023-04-30T04:11:28;99864.44;;;7.33;85.02
9523;BME280;63165;43.016;25.784;2023-04-30T04:13:59;99859.19;;;7.42;85.79
9523;BME280;63165;43.016;25.784;2023-04-30T04:16:35;99860.84;;;7.52;86.32
9523;BME280;63165;43.016;25.784;2023-04-30T04:19:08;99847.78;;;7.62;87.00
9523;BME280;63165;43.016;25.784;2023-04-30T04:21:40;99851.16;;;7.70;86.99
9523;BME280;63165;43.016;25.784;2023-04-30T04:24:11;99838.94;;;7.80;87.33
9523;BME280;63165;43.016;25.784;2023-04-30T04:26:44;99851.00;;;7.90;87.69
9523;BME280;63165;43.016;25.784;2023-04-30T04:29:12;99844.81;;;7.98;87.94
9523;BME280;63165;43.016;25.784;2023-04-30T04:31:40;99843.03;;;8.05;87.75
9523;BME280;63165;43.016;25.784;2023-04-30T04:34:22;99871.63;;;8.13;88.14
9523;BME280;63165;43.016;25.784;2023-04-30T04:36:50;99863.81;;;8.13;87.59
9523;BME280;63165;43.016;25.784;2023-04-30T04:39:18;99856.75;;;8.24;86.75
9523;BME280;63165;43.016;25.784;2023-04-30T04:41:46;99793.72;;;7.88;86.39
9523;BME280;63165;43.016;25.784;2023-04-30T04:44:13;99785.06;;;7.86;86.60
9523;BME280;63165;43.016;25.784;2023-04-30T04:46:43;99868.81;;;8.36;87.03
9523;BME280;63165;43.016;25.784;2023-04-30T04:49:27;99860.94;;;8.38;87.48
9523;BME280;63165;43.016;25.784;2023-04-30T04:51:55;99868.78;;;8.42;87.23
9523;BME280;63165;43.016;25.784;2023-04-30T04:54:23;99865.25;;;8.46;87.38
9523;BME280;63165;43.016;25.784;2023-04-30T04:56:53;99854.81;;;8.45;87.66
9523;BME280;63165;43.016;25.784;2023-04-30T04:59:22;99825.34;;;8.36;87.96
9523;BME280;63165;43.016;25.784;2023-04-30T05:01:52;99846.88;;;8.57;88.49
9523;BME280;63165;43.016;25.784;2023-04-30T05:04:21;99851.91;;;8.71;88.40
9523;BME280;63165;43.016;25.784;2023-04-30T05:06:49;99850.22;;;8.67;88.70
9523;BME280;63165;43.016;25.784;2023-04-30T05:09:16;99847.50;;;8.76;88.56
9523;BME280;63165;43.016;25.784;2023-04-30T05:11:44;99860.31;;;8.96;88.40
9523;BME280;63165;43.016;25.784;2023-04-30T05:14:14;99857.59;;;9.04;88.50
9523;BME280;63165;43.016;25.784;2023-04-30T05:16:41;99866.13;;;9.15;88.45
9523;BME280;63165;43.016;25.784;2023-04-30T05:19:08;99863.41;;;9.23;88.62
9523;BME280;63165;43.016;25.784;2023-04-30T05:21:37;99840.72;;;9.28;88.31
9523;BME280;63165;43.016;25.784;2023-04-30T05:24:05;99854.50;;;9.38;87.67
9523;BME280;63165;43.016;25.784;2023-04-30T05:26:32;99858.75;;;9.45;88.49
9523;BME280;63165;43.016;25.784;2023-04-30T05:28:59;99857.72;;;9.55;88.30
9523;BME280;63165;43.016;25.784;2023-04-30T05:31:27;99816.03;;;9.49;88.56
9523;BME280;63165;43.016;25.784;2023-04-30T05:33:54;99871.97;;;9.88;89.12
9523;BME280;63165;43.016;25.784;2023-04-30T05:36:22;99877.84;;;10.03;89.58
9523;BME280;63165;43.016;25.784;2023-04-30T05:38:51;99848.03;;;10.11;88.88
9523;BME280;63165;43.016;25.784;2023-04-30T05:41:18;99842.56;;;10.27;88.11
9523;BME280;63165;43.016;25.784;2023-04-30T05:43:46;99853.47;;;10.49;86.96
9523;BME280;63165;43.016;25.784;2023-04-30T05:46:13;99856.75;;;10.60;86.18
9523;BME280;63165;43.016;25.784;2023-04-30T05:48:40;99842.75;;;10.64;85.35
9523;BME280;63165;43.016;25.784;2023-04-30T05:51:08;99857.06;;;10.88;85.39
9523;BME280;63165;43.016;25.784;2023-04-30T05:53:35;99851.59;;;10.99;85.00
9523;BME280;63165;43.016;25.784;2023-04-30T05:56:04;99843.50;;;11.10;84.28
9523;BME280;63165;43.016;25.784;2023-04-30T05:58:33;99848.41;;;11.24;83.23
9523;BME280;63165;43.016;25.784;2023-04-30T06:01:00;99858.59;;;11.38;82.83
9523;BME280;63165;43.016;25.784;2023-04-30T06:03:27;99848.75;;;11.48;82.28
9523;BME280;63165;43.016;25.784;2023-04-30T06:05:55;99857.28;;;11.56;81.43
9523;BME280;63165;43.016;25.784;2023-04-30T06:08:22;99856.94;;;11.71;81.31
9523;BME280;63165;43.016;25.784;2023-04-30T06:10:50;99850.59;;;11.80;80.38
9523;BME280;63165;43.016;25.784;2023-04-30T06:13:19;99855.50;;;11.95;79.75
9523;BME280;63165;43.016;25.784;2023-04-30T06:15:46;99841.31;;;12.02;78.59
9523;BME280;63165;43.016;25.784;2023-04-30T06:18:13;99852.06;;;12.26;78.07
9523;BME280;63165;43.016;25.784;2023-04-30T06:20:40;99854.25;;;12.43;76.92
9523;BME280;63165;43.016;25.784;2023-04-30T06:23:08;99833.03;;;12.51;76.62
9523;BME280;63165;43.016;25.784;2023-04-30T06:25:35;99836.72;;;12.75;75.60
9523;BME280;63165;43.016;25.784;2023-04-30T06:28:04;99848.34;;;12.96;75.36
9523;BME280;63165;43.016;25.784;2023-04-30T06:30:35;99839.63;;;13.24;75.04
9523;BME280;63165;43.016;25.784;2023-04-30T06:33:02;99847.47;;;13.55;74.14
9523;BME280;63165;43.016;25.784;2023-04-30T06:35:29;99833.03;;;13.67;73.23
9523;BME280;63165;43.016;25.784;2023-04-30T06:37:57;99847.91;;;13.94;71.26
9523;BME280;63165;43.016;25.784;2023-04-30T06:40:24;99817.84;;;14.02;70.01
9523;BME280;63165;43.016;25.784;2023-04-30T06:42:51;99839.59;;;14.32;69.81
9523;BME280;63165;43.016;25.784;2023-04-30T06:45:19;99842.25;;;14.57;67.84
9523;BME280;63165;43.016;25.784;2023-04-30T06:47:48;99823.41;;;14.68;67.61
9523;BME280;63165;43.016;25.784;2023-04-30T06:50:16;99826.16;;;14.88;67.51
9523;BME280;63165;43.016;25.784;2023-04-30T06:52:43;99835.56;;;15.18;67.40
9523;BME280;63165;43.016;25.784;2023-04-30T06:55:10;99844.56;;;15.36;66.71
9523;BME280;63165;43.016;25.784;2023-04-30T06:57:38;99843.19;;;15.69;65.95
9523;BME280;63165;43.016;25.784;2023-04-30T07:00:06;99831.09;;;15.86;63.72
9523;BME280;63165;43.016;25.784;2023-04-30T07:02:34;99833.81;;;16.05;62.48
9523;BME280;63165;43.016;25.784;2023-04-30T07:05:03;99842.78;;;16.21;60.80
9523;BME280;63165;43.016;25.784;2023-04-30T07:07:31;99846.47;;;16.38;59.63
9523;BME280;63165;43.016;25.784;2023-04-30T07:09:58;99842.41;;;16.49;58.46
9523;BME280;63165;43.016;25.784;2023-04-30T07:12:25;99852.75;;;16.75;57.21
9523;BME280;63165;43.016;25.784;2023-04-30T07:14:52;99838.75;;;16.93;57.39
9523;BME280;63165;43.016;25.784;2023-04-30T07:17:22;99844.03;;;17.12;56.29
9523;BME280;63165;43.016;25.784;2023-04-30T07:19:49;99840.50;;;17.31;56.18
9523;BME280;63165;43.016;25.784;2023-04-30T07:22:18;99836.75;;;17.54;55.61
9523;BME280;63165;43.016;25.784;2023-04-30T07:24:45;99827.44;;;17.64;53.86
9523;BME280;63165;43.016;25.784;2023-04-30T07:27:12;99841.03;;;17.93;52.13
9523;BME280;63165;43.016;25.784;2023-04-30T07:29:40;99839.75;;;18.17;51.57
9523;BME280;63165;43.016;25.784;2023-04-30T07:32:07;99815.53;;;18.25;50.65
9523;BME280;63165;43.016;25.784;2023-04-30T07:34:34;99831.38;;;18.60;49.81
9523;BME280;63165;43.016;25.784;2023-04-30T07:37:01;99818.25;;;18.74;49.26
9523;BME280;63165;43.016;25.784;2023-04-30T07:39:30;99836.59;;;19.11;48.82
9523;BME280;63165;43.016;25.784;2023-04-30T07:41:57;99836.69;;;19.25;48.30
9523;BME280;63165;43.016;25.784;2023-04-30T07:44:31;99847.19;;;19.43;46.38
9523;BME280;63165;43.016;25.784;2023-04-30T07:46:58;99832.13;;;19.59;45.48
9523;BME280;63165;43.016;25.784;2023-04-30T07:49:25;99847.31;;;19.87;43.69
9523;BME280;63165;43.016;25.784;2023-04-30T07:51:53;99819.84;;;20.03;43.55
9523;BME280;63165;43.016;25.784;2023-04-30T07:54:20;99811.63;;;20.22;42.29
9523;BME280;63165;43.016;25.784;2023-04-30T07:56:49;99825.31;;;20.44;41.70
9523;BME280;63165;43.016;25.784;2023-04-30T07:59:16;99821.47;;;20.50;40.78
9523;BME280;63165;43.016;25.784;2023-04-30T08:01:45;99832.88;;;20.66;40.49
9523;BME280;63165;43.016;25.784;2023-04-30T08:04:13;99829.06;;;20.85;40.47
9523;BME280;63165;43.016;25.784;2023-04-30T08:06:40;99822.22;;;20.95;39.35
9523;BME280;63165;43.016;25.784;2023-04-30T08:09:08;99826.66;;;21.09;38.97
9523;BME280;63165;43.016;25.784;2023-04-30T08:11:35;99829.06;;;21.26;38.80
9523;BME280;63165;43.016;25.784;2023-04-30T08:14:04;99814.50;;;21.32;38.29
9523;BME280;63165;43.016;25.784;2023-04-30T08:16:31;99805.78;;;21.30;38.66
9523;BME280;63165;43.016;25.784;2023-04-30T08:18:58;99819.06;;;21.44;37.62
9523;BME280;63165;43.016;25.784;2023-04-30T08:21:26;99824.44;;;21.57;38.24
9523;BME280;63165;43.016;25.784;2023-04-30T08:23:55;99815.00;;;21.66;38.63
9523;BME280;63165;43.016;25.784;2023-04-30T08:26:24;99824.31;;;21.86;37.97
9523;BME280;63165;43.016;25.784;2023-04-30T08:28:51;99819.19;;;21.96;37.46
9523;BME280;63165;43.016;25.784;2023-04-30T08:31:20;99815.28;;;22.14;37.10
9523;BME280;63165;43.016;25.784;2023-04-30T08:33:48;99806.66;;;22.23;36.38
9523;BME280;63165;43.016;25.784;2023-04-30T08:36:15;99797.53;;;22.27;36.47
9523;BME280;63165;43.016;25.784;2023-04-30T08:38:42;99811.59;;;22.55;36.38
9523;BME280;63165;43.016;25.784;2023-04-30T08:41:11;99788.88;;;22.49;36.39
9523;BME280;63165;43.016;25.784;2023-04-30T08:43:39;99807.44;;;22.64;36.39
9523;BME280;63165;43.016;25.784;2023-04-30T08:46:07;99801.09;;;22.78;36.70
9523;BME280;63165;43.016;25.784;2023-04-30T08:48:36;99800.75;;;22.95;35.95
9523;BME280;63165;43.016;25.784;2023-04-30T08:51:04;99821.13;;;23.09;35.38
9523;BME280;63165;43.016;25.784;2023-04-30T08:53:34;99811.75;;;23.03;35.02
9523;BME280;63165;43.016;25.784;2023-04-30T08:56:02;99803.94;;;23.00;34.83
9523;BME280;63165;43.016;25.784;2023-04-30T08:58:31;99799.56;;;23.12;35.86
9523;BME280;63165;43.016;25.784;2023-04-30T09:00:58;99788.53;;;23.17;35.50
9523;BME280;63165;43.016;25.784;2023-04-30T09:03:26;99801.84;;;23.30;34.72
9523;BME280;63165;43.016;25.784;2023-04-30T09:05:55;99771.22;;;23.22;34.30
9523;BME280;63165;43.016;25.784;2023-04-30T09:08:40;99784.00;;;23.30;33.48
9523;BME280;63165;43.016;25.784;2023-04-30T09:11:20;99794.56;;;23.32;34.47
9523;BME280;63165;43.016;25.784;2023-04-30T09:13:49;99790.41;;;23.52;35.45
9523;BME280;63165;43.016;25.784;2023-04-30T09:16:18;99797.50;;;23.64;34.91
9523;BME280;63165;43.016;25.784;2023-04-30T09:18:45;99775.03;;;23.79;34.04
9523;BME280;63165;43.016;25.784;2023-04-30T09:21:14;99780.63;;;23.88;33.96
9523;BME280;63165;43.016;25.784;2023-04-30T09:23:55;99786.09;;;23.97;33.97
9523;BME280;63165;43.016;25.784;2023-04-30T09:26:26;99777.75;;;24.13;34.83
9523;BME280;63165;43.016;25.784;2023-04-30T09:28:55;99785.69;;;24.26;34.99
9523;BME280;63165;43.016;25.784;2023-04-30T09:31:33;99765.38;;;24.35;35.10
9523;BME280;63165;43.016;25.784;2023-04-30T09:34:00;99776.56;;;24.51;35.23
9523;BME280;63165;43.016;25.784;2023-04-30T09:36:29;99780.50;;;24.58;34.16
9523;BME280;63165;43.016;25.784;2023-04-30T09:39:05;99777.69;;;24.60;34.63
9523;BME280;63165;43.016;25.784;2023-04-30T09:41:33;99764.91;;;24.41;34.02
9523;BME280;63165;43.016;25.784;2023-04-30T09:44:01;99769.16;;;24.21;33.44
9523;BME280;63165;43.016;25.784;2023-04-30T09:46:32;99757.72;;;24.08;33.78
9523;BME280;63165;43.016;25.784;2023-04-30T09:49:01;99751.38;;;23.97;33.97
9523;BME280;63165;43.016;25.784;2023-04-30T09:51:30;99761.72;;;24.02;34.04
9523;BME280;63165;43.016;25.784;2023-04-30T09:53:58;99764.38;;;23.91;33.53
9523;BME280;63165;43.016;25.784;2023-04-30T09:56:30;99753.81;;;24.00;33.88
9523;BME280;63165;43.016;25.784;2023-04-30T09:59:03;99745.91;;;23.99;34.07
9523;BME280;63165;43.016;25.784;2023-04-30T10:01:33;99749.31;;;24.01;34.58
9523;BME280;63165;43.016;25.784;2023-04-30T10:04:04;99748.59;;;24.10;35.21
9523;BME280;63165;43.016;25.784;2023-04-30T10:06:33;99741.19;;;24.14;34.70
9523;BME280;63165;43.016;25.784;2023-04-30T10:09:01;99701.47;;;24.09;34.24
9523;BME280;63165;43.016;25.784;2023-04-30T10:11:32;99757.63;;;24.66;33.75
9523;BME280;63165;43.016;25.784;2023-04-30T10:14:02;99746.94;;;24.66;33.75
9523;BME280;63165;43.016;25.784;2023-04-30T10:16:53;99749.25;;;24.59;33.25
9523;BME280;63165;43.016;25.784;2023-04-30T10:19:23;99741.81;;;24.51;33.25
9523;BME280;63165;43.016;25.784;2023-04-30T10:21:52;99711.44;;;24.07;33.37
9523;BME280;63165;43.016;25.784;2023-04-30T10:24:19;99706.53;;;24.01;33.61
9523;BME280;63165;43.016;25.784;2023-04-30T10:26:47;99738.03;;;24.31;33.83
9523;BME280;63165;43.016;25.784;2023-04-30T10:29:16;99703.53;;;24.17;33.56
9523;BME280;63165;43.016;25.784;2023-04-30T10:31:45;99743.13;;;24.46;33.50
9523;BME280;63165;43.016;25.784;2023-04-30T10:34:18;99736.69;;;24.48;33.07
9523;BME280;63165;43.016;25.784;2023-04-30T10:36:53;99744.47;;;24.40;32.93
9523;BME280;63165;43.016;25.784;2023-04-30T10:39:24;99741.72;;;24.53;33.25
9523;BME280;63165;43.016;25.784;2023-04-30T10:42:00;99739.25;;;24.72;32.78
9523;BME280;63165;43.016;25.784;2023-04-30T10:44:31;99729.25;;;24.97;33.15
9523;BME280;63165;43.016;25.784;2023-04-30T10:46:59;99735.25;;;25.22;33.22
9523;BME280;63165;43.016;25.784;2023-04-30T10:49:27;99727.81;;;25.36;33.28
9523;BME280;63165;43.016;25.784;2023-04-30T10:51:58;99720.22;;;25.42;32.63
9523;BME280;63165;43.016;25.784;2023-04-30T10:54:26;99723.34;;;25.26;32.28
9523;BME280;63165;43.016;25.784;2023-04-30T10:57:00;99699.44;;;25.23;32.44
9523;BME280;63165;43.016;25.784;2023-04-30T10:59:36;99699.84;;;25.29;32.83
9523;BME280;63165;43.016;25.784;2023-04-30T11:02:03;99716.63;;;25.31;32.52
9523;BME280;63165;43.016;25.784;2023-04-30T11:04:31;99719.66;;;25.27;32.29
9523;BME280;63165;43.016;25.784;2023-04-30T11:07:07;99709.81;;;25.27;32.65
9523;BME280;63165;43.016;25.784;2023-04-30T11:09:38;99688.13;;;25.30;32.24
9523;BME280;63165;43.016;25.784;2023-04-30T11:12:10;99711.34;;;25.62;32.75
9523;BME280;63165;43.016;25.784;2023-04-30T11:14:42;99705.66;;;25.76;32.49
9523;BME280;63165;43.016;25.784;2023-04-30T11:17:10;99702.25;;;25.74;32.05
9523;BME280;63165;43.016;25.784;2023-04-30T11:19:45;99719.56;;;25.91;31.73
9523;BME280;63165;43.016;25.784;2023-04-30T11:22:20;99705.72;;;26.07;31.43
9523;BME280;63165;43.016;25.784;2023-04-30T11:24:49;99705.44;;;26.10;31.58
9523;BME280;63165;43.016;25.784;2023-04-30T11:27:19;99717.09;;;26.21;31.28
9523;BME280;63165;43.016;25.784;2023-04-30T11:29:48;99689.34;;;26.10;30.97
9523;BME280;63165;43.016;25.784;2023-04-30T11:32:15;99693.38;;;26.26;30.51
9523;BME280;63165;43.016;25.784;2023-04-30T11:34:43;99689.72;;;26.27;30.00
9523;BME280;63165;43.016;25.784;2023-04-30T11:37:12;99680.94;;;26.15;30.66
9523;BME280;63165;43.016;25.784;2023-04-30T11:39:41;99692.84;;;26.32;29.91
9523;BME280;63165;43.016;25.784;2023-04-30T11:42:09;99696.41;;;26.42;29.48
9523;BME280;63165;43.016;25.784;2023-04-30T11:44:36;99687.75;;;26.60;29.83
9523;BME280;63165;43.016;25.784;2023-04-30T11:47:04;99671.34;;;26.63;30.03
9523;BME280;63165;43.016;25.784;2023-04-30T11:49:32;99685.59;;;26.63;29.33
9523;BME280;63165;43.016;25.784;2023-04-30T11:52:00;99684.06;;;26.61;28.91
9523;BME280;63165;43.016;25.784;2023-04-30T11:54:30;99683.09;;;26.62;28.95
9523;BME280;63165;43.016;25.784;2023-04-30T11:56:59;99690.66;;;26.57;29.25
9523;BME280;63165;43.016;25.784;2023-04-30T11:59:28;99684.84;;;26.51;29.98
9523;BME280;63165;43.016;25.784;2023-04-30T12:01:56;99687.97;;;26.47;30.27
9523;BME280;63165;43.016;25.784;2023-04-30T12:04:23;99682.97;;;26.42;30.15
9523;BME280;63165;43.016;25.784;2023-04-30T12:06:53;99676.84;;;26.21;30.25
9523;BME280;63165;43.016;25.784;2023-04-30T12:09:20;99670.91;;;26.17;30.34
9523;BME280;63165;43.016;25.784;2023-04-30T12:11:47;99668.84;;;26.00;30.42
9523;BME280;63165;43.016;25.784;2023-04-30T12:14:17;99666.03;;;26.01;30.64
9523;BME280;63165;43.016;25.784;2023-04-30T12:16:45;99662.53;;;26.10;31.11
9523;BME280;63165;43.016;25.784;2023-04-30T12:19:14;99660.28;;;26.06;30.42
9523;BME280;63165;43.016;25.784;2023-04-30T12:21:43;99570.94;;;25.44;30.27
9523;BME280;63165;43.016;25.784;2023-04-30T12:24:11;99672.78;;;25.95;30.27
9523;BME280;63165;43.016;25.784;2023-04-30T12:26:39;99640.88;;;25.71;30.33
9523;BME280;63165;43.016;25.784;2023-04-30T12:29:08;99658.78;;;25.92;29.95
9523;BME280;63165;43.016;25.784;2023-04-30T12:31:37;99661.56;;;26.11;30.52
9523;BME280;63165;43.016;25.784;2023-04-30T12:34:07;99654.97;;;26.25;30.63
9523;BME280;63165;43.016;25.784;2023-04-30T12:36:35;99645.28;;;26.34;30.24
9523;BME280;63165;43.016;25.784;2023-04-30T12:39:05;99645.03;;;26.47;30.82
9523;BME280;63165;43.016;25.784;2023-04-30T12:41:39;99650.41;;;26.47;30.46
9523;BME280;63165;43.016;25.784;2023-04-30T12:44:16;99649.53;;;26.46;30.23
9523;BME280;63165;43.016;25.784;2023-04-30T12:46:46;99644.47;;;26.53;30.29
9523;BME280;63165;43.016;25.784;2023-04-30T12:49:22;99645.94;;;26.67;30.24
9523;BME280;63165;43.016;25.784;2023-04-30T12:51:50;99638.31;;;26.82;29.57
9523;BME280;63165;43.016;25.784;2023-04-30T12:54:27;99637.91;;;26.86;29.77
9523;BME280;63165;43.016;25.784;2023-04-30T12:56:59;99600.97;;;26.49;28.95
9523;BME280;63165;43.016;25.784;2023-04-30T12:59:28;99623.75;;;26.75;28.73
9523;BME280;63165;43.016;25.784;2023-04-30T13:02:06;99629.69;;;26.78;27.92
9523;BME280;63165;43.016;25.784;2023-04-30T13:04:39;99618.13;;;26.87;27.74
9523;BME280;63165;43.016;25.784;2023-04-30T13:07:07;99616.13;;;26.89;27.38
9523;BME280;63165;43.016;25.784;2023-04-30T13:09:35;99625.75;;;26.92;27.59
9523;BME280;63165;43.016;25.784;2023-04-30T13:12:03;99619.13;;;26.96;28.04
9523;BME280;63165;43.016;25.784;2023-04-30T13:14:32;99607.81;;;27.02;27.58
9523;BME280;63165;43.016;25.784;2023-04-30T13:16:59;99604.13;;;27.13;27.27
9523;BME280;63165;43.016;25.784;2023-04-30T13:19:31;99617.13;;;27.18;26.72
9523;BME280;63165;43.016;25.784;2023-04-30T13:21:58;99605.41;;;27.19;26.59